sensor_id;sensor_type;location;lat;lon;timestamp;P1;durP1;ratioP1;P2;durP2;ratioP2
7887;SDS011;3989;48.810;9.208;2022-08-04T00:01:01;3.38;;;3.17;;
7887;SDS011;3989;48.810;9.208;2022-08-04T00:03:31;4.40;;;3.20;;
7887;SDS011;3989;48.810;9.208;2022-08-04T00:06:03;3.55;;;3.25;;
7887;SDS011;3989;48.810;9.208;2022-08-04T00:08:37;3.38;;;3.08;;
7887;SDS011;3989;48.810;9.208;2022-08-04T00:11:09;4.13;;;3.17;;
7887;SDS011;3989;48.810;9.208;2022-08-04T00:13:40;3.05;;;2.85;;
7887;SDS011;3989;48.810;9.208;2022-08-04T00:16:12;4.10;;;3.00;;
7887;SDS011;3989;48.810;9.208;2022-08-04T00:18:40;5.32;;;2.88;;
7887;SDS011;3989;48.810;9.208;2022-08-04T00:21:11;3.10;;;2.90;;
7887;SDS011;3989;48.810;9.208;2022-08-04T00:23:38;2.78;;;2.67;;
7887;SDS011;3989;48.810;9.208;2022-08-04T00:26:08;11.63;;;3.28;;
7887;SDS011;3989;48.810;9.208;2022-08-04T00:28:35;3.30;;;3.00;;
7887;SDS011;3989;48.810;9.208;2022-08-04T00:31:03;3.88;;;3.17;;
7887;SDS011;3989;48.810;9.208;2022-08-04T00:33:31;3.20;;;3.00;;
7887;SDS011;3989;48.810;9.208;2022-08-04T00:35:58;3.50;;;3.20;;
7887;SDS011;3989;48.810;9.208;2022-08-04T00:38:26;3.20;;;2.90;;
7887;SDS011;3989;48.810;9.208;2022-08-04T00:40:55;3.10;;;2.85;;
7887;SDS011;3989;48.810;9.208;2022-08-04T00:43:29;4.03;;;2.80;;
7887;SDS011;3989;48.810;9.208;2022-08-04T00:46:01;2.65;;;2.45;;
7887;SDS011;3989;48.810;9.208;2022-08-04T00:48:54;2.97;;;2.78;;
7887;SDS011;3989;48.810;9.208;2022-08-04T00:51:30;7.13;;;3.13;;
7887;SDS011;3989;48.810;9.208;2022-08-04T00:54:10;3.05;;;2.80;;
7887;SDS011;3989;48.810;9.208;2022-08-04T00:56:46;3.13;;;2.80;;
7887;SDS011;3989;48.810;9.208;2022-08-04T00:59:27;3.35;;;3.05;;
7887;SDS011;3989;48.810;9.208;2022-08-04T01:02:06;4.18;;;3.83;;
7887;SDS011;3989;48.810;9.208;2022-08-04T01:07:36;3.20;;;2.92;;
7887;SDS011;3989;48.810;9.208;2022-08-04T01:10:17;2.70;;;2.50;;
7887;SDS011;3989;48.810;9.208;2022-08-04T01:15:44;3.42;;;3.13;;
7887;SDS011;3989;48.810;9.208;2022-08-04T01:18:20;2.78;;;2.58;;
7887;SDS011;3989;48.810;9.208;2022-08-04T01:20:49;2.83;;;2.63;;
7887;SDS011;3989;48.810;9.208;2022-08-04T01:26:26;2.38;;;2.17;;
7887;SDS011;3989;48.810;9.208;2022-08-04T01:29:11;2.90;;;2.70;;
7887;SDS011;3989;48.810;9.208;2022-08-04T01:34:28;2.97;;;2.50;;
7887;SDS011;3989;48.810;9.208;2022-08-04T01:36:57;3.22;;;2.70;;
7887;SDS011;3989;48.810;9.208;2022-08-04T01:39:30;3.08;;;2.75;;
7887;SDS011;3989;48.810;9.208;2022-08-04T01:42:06;3.00;;;2.80;;
7887;SDS011;3989;48.810;9.208;2022-08-04T01:44:36;3.28;;;2.90;;
7887;SDS011;3989;48.810;9.208;2022-08-04T01:47:03;2.63;;;2.40;;
7887;SDS011;3989;48.810;9.208;2022-08-04T01:49:31;2.80;;;2.60;;
7887;SDS011;3989;48.810;9.208;2022-08-04T01:51:58;3.13;;;2.83;;
7887;SDS011;3989;48.810;9.208;2022-08-04T01:54:27;4.45;;;3.40;;
7887;SDS011;3989;48.810;9.208;2022-08-04T01:56:55;2.85;;;2.65;;
7887;SDS011;3989;48.810;9.208;2022-08-04T01:59:24;3.30;;;2.60;;
7887;SDS011;3989;48.810;9.208;2022-08-04T02:01:57;2.97;;;2.85;;
7887;SDS011;3989;48.810;9.208;2022-08-04T02:04:23;3.00;;;2.70;;
7887;SDS011;3989;48.810;9.208;2022-08-04T02:06:54;2.95;;;2.65;;
7887;SDS011;3989;48.810;9.208;2022-08-04T02:09:29;2.45;;;2.35;;
7887;SDS011;3989;48.810;9.208;2022-08-04T02:12:04;4.60;;;3.00;;
7887;SDS011;3989;48.810;9.208;2022-08-04T02:14:37;3.10;;;2.80;;
7887;SDS011;3989;48.810;9.208;2022-08-04T02:17:14;2.58;;;2.40;;
7887;SDS011;3989;48.810;9.208;2022-08-04T02:20:05;4.38;;;3.22;;
7887;SDS011;3989;48.810;9.208;2022-08-04T02:22:37;3.28;;;2.92;;
7887;SDS011;3989;48.810;9.208;2022-08-04T02:25:06;2.63;;;2.53;;
7887;SDS011;3989;48.810;9.208;2022-08-04T02:30:39;2.95;;;2.72;;
7887;SDS011;3989;48.810;9.208;2022-08-04T02:33:14;3.80;;;3.00;;
7887;SDS011;3989;48.810;9.208;2022-08-04T02:35:49;2.90;;;2.70;;
7887;SDS011;3989;48.810;9.208;2022-08-04T02:38:23;2.47;;;2.28;;
7887;SDS011;3989;48.810;9.208;2022-08-04T02:40:56;2.70;;;2.50;;
7887;SDS011;3989;48.810;9.208;2022-08-04T02:43:25;3.30;;;2.53;;
7887;SDS011;3989;48.810;9.208;2022-08-04T02:45:54;2.63;;;2.42;;
7887;SDS011;3989;48.810;9.208;2022-08-04T02:48:24;2.78;;;2.58;;
7887;SDS011;3989;48.810;9.208;2022-08-04T02:50:52;5.50;;;2.95;;
7887;SDS011;3989;48.810;9.208;2022-08-04T02:53:20;2.80;;;2.53;;
7887;SDS011;3989;48.810;9.208;2022-08-04T02:55:47;2.92;;;2.72;;
7887;SDS011;3989;48.810;9.208;2022-08-04T02:58:18;3.42;;;3.00;;
7887;SDS011;3989;48.810;9.208;2022-08-04T03:00:45;2.85;;;2.65;;
7887;SDS011;3989;48.810;9.208;2022-08-04T03:03:25;3.33;;;3.03;;
7887;SDS011;3989;48.810;9.208;2022-08-04T03:06:12;3.72;;;3.00;;
7887;SDS011;3989;48.810;9.208;2022-08-04T03:09:01;3.88;;;2.72;;
7887;SDS011;3989;48.810;9.208;2022-08-04T03:12:05;3.00;;;2.70;;
7887;SDS011;3989;48.810;9.208;2022-08-04T03:15:18;2.85;;;2.58;;
7887;SDS011;3989;48.810;9.208;2022-08-04T03:18:24;3.28;;;2.97;;
7887;SDS011;3989;48.810;9.208;2022-08-04T03:24:24;3.40;;;2.60;;
7887;SDS011;3989;48.810;9.208;2022-08-04T03:27:16;2.85;;;2.70;;
7887;SDS011;3989;48.810;9.208;2022-08-04T03:30:05;3.10;;;2.80;;
7887;SDS011;3989;48.810;9.208;2022-08-04T03:32:48;3.13;;;2.92;;
7887;SDS011;3989;48.810;9.208;2022-08-04T03:39:06;2.85;;;2.65;;
7887;SDS011;3989;48.810;9.208;2022-08-04T03:42:08;3.20;;;3.00;;
7887;SDS011;3989;48.810;9.208;2022-08-04T03:45:15;2.33;;;2.10;;
7887;SDS011;3989;48.810;9.208;2022-08-04T03:51:08;2.70;;;2.50;;
7887;SDS011;3989;48.810;9.208;2022-08-04T03:56:59;2.45;;;2.35;;
7887;SDS011;3989;48.810;9.208;2022-08-04T04:02:44;3.40;;;2.30;;
7887;SDS011;3989;48.810;9.208;2022-08-04T04:11:42;2.83;;;2.63;;
7887;SDS011;3989;48.810;9.208;2022-08-04T04:14:40;3.35;;;2.88;;
7887;SDS011;3989;48.810;9.208;2022-08-04T04:20:20;2.88;;;2.30;;
7887;SDS011;3989;48.810;9.208;2022-08-04T04:22:59;4.63;;;2.70;;
7887;SDS011;3989;48.810;9.208;2022-08-04T04:25:33;2.83;;;2.60;;
7887;SDS011;3989;48.810;9.208;2022-08-04T04:28:25;2.75;;;2.42;;
7887;SDS011;3989;48.810;9.208;2022-08-04T04:31:05;4.78;;;2.30;;
7887;SDS011;3989;48.810;9.208;2022-08-04T04:33:50;2.58;;;2.38;;
7887;SDS011;3989;48.810;9.208;2022-08-04T04:36:24;5.20;;;2.70;;
7887;SDS011;3989;48.810;9.208;2022-08-04T04:39:00;2.65;;;2.45;;
7887;SDS011;3989;48.810;9.208;2022-08-04T04:41:40;2.83;;;2.63;;
7887;SDS011;3989;48.810;9.208;2022-08-04T04:44:33;3.42;;;3.00;;
7887;SDS011;3989;48.810;9.208;2022-08-04T04:47:21;3.45;;;3.15;;
7887;SDS011;3989;48.810;9.208;2022-08-04T04:49:56;4.97;;;3.08;;
7887;SDS011;3989;48.810;9.208;2022-08-04T04:52:29;3.40;;;3.10;;
7887;SDS011;3989;48.810;9.208;2022-08-04T04:55:09;3.33;;;3.03;;
7887;SDS011;3989;48.810;9.208;2022-08-04T04:57:43;2.70;;;2.50;;
7887;SDS011;3989;48.810;9.208;2022-08-04T05:00:11;3.83;;;2.50;;
7887;SDS011;3989;48.810;9.208;2022-08-04T05:05:32;2.90;;;2.67;;
7887;SDS011;3989;48.810;9.208;2022-08-04T05:08:19;4.45;;;3.05;;
7887;SDS011;3989;48.810;9.208;2022-08-04T05:11:11;3.08;;;2.83;;
7887;SDS011;3989;48.810;9.208;2022-08-04T05:13:51;5.50;;;2.45;;
7887;SDS011;3989;48.810;9.208;2022-08-04T05:16:19;6.78;;;2.60;;
7887;SDS011;3989;48.810;9.208;2022-08-04T05:18:55;5.20;;;3.10;;
7887;SDS011;3989;48.810;9.208;2022-08-04T05:21:32;2.70;;;2.50;;
7887;SDS011;3989;48.810;9.208;2022-08-04T05:24:05;4.60;;;2.85;;
7887;SDS011;3989;48.810;9.208;2022-08-04T05:26:36;8.18;;;4.00;;
7887;SDS011;3989;48.810;9.208;2022-08-04T05:29:08;4.90;;;3.30;;
7887;SDS011;3989;48.810;9.208;2022-08-04T05:31:39;3.00;;;2.80;;
7887;SDS011;3989;48.810;9.208;2022-08-04T05:34:12;3.10;;;2.85;;
7887;SDS011;3989;48.810;9.208;2022-08-04T05:36:42;4.47;;;2.95;;
7887;SDS011;3989;48.810;9.208;2022-08-04T05:39:14;4.95;;;3.08;;
7887;SDS011;3989;48.810;9.208;2022-08-04T05:41:45;2.55;;;2.35;;
7887;SDS011;3989;48.810;9.208;2022-08-04T05:44:13;2.72;;;2.53;;
7887;SDS011;3989;48.810;9.208;2022-08-04T05:46:42;2.78;;;2.58;;
7887;SDS011;3989;48.810;9.208;2022-08-04T05:49:12;2.60;;;2.40;;
7887;SDS011;3989;48.810;9.208;2022-08-04T05:51:40;2.88;;;2.50;;
7887;SDS011;3989;48.810;9.208;2022-08-04T05:54:08;4.10;;;2.47;;
7887;SDS011;3989;48.810;9.208;2022-08-04T05:56:36;2.85;;;2.63;;
7887;SDS011;3989;48.810;9.208;2022-08-04T05:59:03;2.67;;;2.45;;
7887;SDS011;3989;48.810;9.208;2022-08-04T06:01:31;2.35;;;2.15;;
7887;SDS011;3989;48.810;9.208;2022-08-04T06:03:59;4.45;;;2.95;;
7887;SDS011;3989;48.810;9.208;2022-08-04T06:06:29;4.55;;;2.30;;
7887;SDS011;3989;48.810;9.208;2022-08-04T06:08:56;5.70;;;2.45;;
7887;SDS011;3989;48.810;9.208;2022-08-04T06:11:23;4.60;;;2.60;;
7887;SDS011;3989;48.810;9.208;2022-08-04T06:13:53;3.95;;;2.45;;
7887;SDS011;3989;48.810;9.208;2022-08-04T06:16:23;2.80;;;2.60;;
7887;SDS011;3989;48.810;9.208;2022-08-04T06:18:52;3.13;;;2.33;;
7887;SDS011;3989;48.810;9.208;2022-08-04T06:21:21;2.70;;;2.50;;
7887;SDS011;3989;48.810;9.208;2022-08-04T06:23:53;3.83;;;2.00;;
7887;SDS011;3989;48.810;9.208;2022-08-04T06:26:21;3.55;;;2.20;;
7887;SDS011;3989;48.810;9.208;2022-08-04T06:28:50;2.67;;;2.47;;
7887;SDS011;3989;48.810;9.208;2022-08-04T06:31:18;3.60;;;2.53;;
7887;SDS011;3989;48.810;9.208;2022-08-04T06:33:57;2.85;;;2.65;;
7887;SDS011;3989;48.810;9.208;2022-08-04T06:36:27;3.90;;;2.50;;
7887;SDS011;3989;48.810;9.208;2022-08-04T06:38:57;2.45;;;2.20;;
7887;SDS011;3989;48.810;9.208;2022-08-04T06:41:24;2.58;;;2.17;;
7887;SDS011;3989;48.810;9.208;2022-08-04T06:43:52;3.08;;;2.35;;
7887;SDS011;3989;48.810;9.208;2022-08-04T06:46:19;2.35;;;2.25;;
7887;SDS011;3989;48.810;9.208;2022-08-04T06:48:46;7.97;;;2.38;;
7887;SDS011;3989;48.810;9.208;2022-08-04T06:51:16;2.60;;;2.40;;
7887;SDS011;3989;48.810;9.208;2022-08-04T06:53:45;2.20;;;2.10;;
7887;SDS011;3989;48.810;9.208;2022-08-04T06:56:13;2.10;;;2.00;;
7887;SDS011;3989;48.810;9.208;2022-08-04T06:58:42;5.03;;;2.30;;
7887;SDS011;3989;48.810;9.208;2022-08-04T07:01:11;3.30;;;2.40;;
7887;SDS011;3989;48.810;9.208;2022-08-04T07:03:39;7.90;;;2.28;;
7887;SDS011;3989;48.810;9.208;2022-08-04T07:06:06;2.50;;;2.30;;
7887;SDS011;3989;48.810;9.208;2022-08-04T07:08:33;2.53;;;2.15;;
7887;SDS011;3989;48.810;9.208;2022-08-04T07:11:00;2.08;;;1.98;;
7887;SDS011;3989;48.810;9.208;2022-08-04T07:13:28;5.15;;;2.30;;
7887;SDS011;3989;48.810;9.208;2022-08-04T07:15:56;4.25;;;2.40;;
7887;SDS011;3989;48.810;9.208;2022-08-04T07:18:24;2.42;;;2.25;;
7887;SDS011;3989;48.810;9.208;2022-08-04T07:20:51;2.60;;;2.40;;
7887;SDS011;3989;48.810;9.208;2022-08-04T07:23:22;2.50;;;2.40;;
7887;SDS011;3989;48.810;9.208;2022-08-04T07:25:50;5.18;;;2.58;;
7887;SDS011;3989;48.810;9.208;2022-08-04T07:28:17;3.25;;;2.33;;
7887;SDS011;3989;48.810;9.208;2022-08-04T07:30:46;2.40;;;2.25;;
7887;SDS011;3989;48.810;9.208;2022-08-04T07:33:14;3.58;;;2.10;;
7887;SDS011;3989;48.810;9.208;2022-08-04T07:35:42;4.45;;;1.83;;
7887;SDS011;3989;48.810;9.208;2022-08-04T07:38:09;2.85;;;1.88;;
7887;SDS011;3989;48.810;9.208;2022-08-04T07:40:36;3.45;;;2.20;;
7887;SDS011;3989;48.810;9.208;2022-08-04T07:43:03;2.35;;;2.22;;
7887;SDS011;3989;48.810;9.208;2022-08-04T07:45:30;2.20;;;2.10;;
7887;SDS011;3989;48.810;9.208;2022-08-04T07:47:58;3.60;;;2.13;;
7887;SDS011;3989;48.810;9.208;2022-08-04T07:50:25;3.33;;;2.15;;
7887;SDS011;3989;48.810;9.208;2022-08-04T07:52:53;8.65;;;7.80;;
7887;SDS011;3989;48.810;9.208;2022-08-04T07:55:20;2.50;;;2.40;;
7887;SDS011;3989;48.810;9.208;2022-08-04T07:57:47;5.75;;;2.35;;
7887;SDS011;3989;48.810;9.208;2022-08-04T08:00:14;5.53;;;2.03;;
7887;SDS011;3989;48.810;9.208;2022-08-04T08:02:41;5.05;;;2.15;;
7887;SDS011;3989;48.810;9.208;2022-08-04T08:05:15;3.63;;;2.50;;
7887;SDS011;3989;48.810;9.208;2022-08-04T08:07:44;2.00;;;1.90;;
7887;SDS011;3989;48.810;9.208;2022-08-04T08:10:11;5.03;;;2.00;;
7887;SDS011;3989;48.810;9.208;2022-08-04T08:12:38;2.30;;;2.10;;
7887;SDS011;3989;48.810;9.208;2022-08-04T08:15:06;2.30;;;2.10;;
7887;SDS011;3989;48.810;9.208;2022-08-04T08:17:34;2.60;;;1.95;;
7887;SDS011;3989;48.810;9.208;2022-08-04T08:20:00;2.05;;;1.95;;
7887;SDS011;3989;48.810;9.208;2022-08-04T08:22:29;2.42;;;1.75;;
7887;SDS011;3989;48.810;9.208;2022-08-04T08:24:56;3.10;;;2.40;;
7887;SDS011;3989;48.810;9.208;2022-08-04T08:27:23;1.90;;;1.80;;
7887;SDS011;3989;48.810;9.208;2022-08-04T08:29:51;2.83;;;2.00;;
7887;SDS011;3989;48.810;9.208;2022-08-04T08:32:17;2.20;;;2.03;;
7887;SDS011;3989;48.810;9.208;2022-08-04T08:34:45;2.28;;;1.90;;
7887;SDS011;3989;48.810;9.208;2022-08-04T08:37:12;3.10;;;1.65;;
7887;SDS011;3989;48.810;9.208;2022-08-04T08:39:48;2.15;;;1.80;;
7887;SDS011;3989;48.810;9.208;2022-08-04T08:42:30;2.35;;;2.15;;
7887;SDS011;3989;48.810;9.208;2022-08-04T08:48:27;1.85;;;1.75;;
7887;SDS011;3989;48.810;9.208;2022-08-04T08:54:36;2.10;;;1.90;;
7887;SDS011;3989;48.810;9.208;2022-08-04T08:57:27;2.05;;;1.95;;
7887;SDS011;3989;48.810;9.208;2022-08-04T09:00:05;1.63;;;1.63;;
7887;SDS011;3989;48.810;9.208;2022-08-04T09:02:56;1.90;;;1.70;;
7887;SDS011;3989;48.810;9.208;2022-08-04T09:05:41;2.25;;;2.08;;
7887;SDS011;3989;48.810;9.208;2022-08-04T09:08:22;1.77;;;1.67;;
7887;SDS011;3989;48.810;9.208;2022-08-04T09:11:05;2.22;;;2.00;;
7887;SDS011;3989;48.810;9.208;2022-08-04T09:13:39;1.90;;;1.75;;
7887;SDS011;3989;48.810;9.208;2022-08-04T09:16:13;2.08;;;1.80;;
7887;SDS011;3989;48.810;9.208;2022-08-04T09:18:46;2.10;;;1.88;;
7887;SDS011;3989;48.810;9.208;2022-08-04T09:21:22;2.78;;;1.75;;
7887;SDS011;3989;48.810;9.208;2022-08-04T09:23:57;2.20;;;2.00;;
7887;SDS011;3989;48.810;9.208;2022-08-04T09:26:33;2.17;;;1.90;;
7887;SDS011;3989;48.810;9.208;2022-08-04T09:29:13;2.08;;;1.98;;
7887;SDS011;3989;48.810;9.208;2022-08-04T09:31:45;2.00;;;1.90;;
7887;SDS011;3989;48.810;9.208;2022-08-04T09:34:19;2.20;;;2.00;;
7887;SDS011;3989;48.810;9.208;2022-08-04T09:36:55;2.15;;;1.70;;
7887;SDS011;3989;48.810;9.208;2022-08-04T09:39:31;1.77;;;1.67;;
7887;SDS011;3989;48.810;9.208;2022-08-04T09:42:08;2.30;;;2.03;;
7887;SDS011;3989;48.810;9.208;2022-08-04T09:44:45;1.73;;;1.63;;
7887;SDS011;3989;48.810;9.208;2022-08-04T09:47:19;2.25;;;2.05;;
7887;SDS011;3989;48.810;9.208;2022-08-04T09:49:56;3.45;;;2.05;;
7887;SDS011;3989;48.810;9.208;2022-08-04T09:52:40;2.20;;;2.10;;
7887;SDS011;3989;48.810;9.208;2022-08-04T09:55:16;2.00;;;1.90;;
7887;SDS011;3989;48.810;9.208;2022-08-04T09:57:52;1.92;;;1.83;;
7887;SDS011;3989;48.810;9.208;2022-08-04T10:00:34;1.90;;;1.80;;
7887;SDS011;3989;48.810;9.208;2022-08-04T10:03:06;1.92;;;1.83;;
7887;SDS011;3989;48.810;9.208;2022-08-04T10:05:41;1.85;;;1.75;;
7887;SDS011;3989;48.810;9.208;2022-08-04T10:08:17;1.73;;;1.65;;
7887;SDS011;3989;48.810;9.208;2022-08-04T10:10:55;2.05;;;1.95;;
7887;SDS011;3989;48.810;9.208;2022-08-04T10:13:35;1.70;;;1.70;;
7887;SDS011;3989;48.810;9.208;2022-08-04T10:16:14;1.63;;;1.63;;
7887;SDS011;3989;48.810;9.208;2022-08-04T10:18:57;3.63;;;1.92;;
7887;SDS011;3989;48.810;9.208;2022-08-04T10:21:37;2.10;;;2.00;;
7887;SDS011;3989;48.810;9.208;2022-08-04T10:24:14;2.10;;;1.88;;
7887;SDS011;3989;48.810;9.208;2022-08-04T10:26:57;1.80;;;1.70;;
7887;SDS011;3989;48.810;9.208;2022-08-04T10:29:29;1.50;;;1.50;;
7887;SDS011;3989;48.810;9.208;2022-08-04T10:32:05;2.13;;;2.03;;
7887;SDS011;3989;48.810;9.208;2022-08-04T10:34:38;2.10;;;1.88;;
7887;SDS011;3989;48.810;9.208;2022-08-04T10:37:12;1.40;;;1.40;;
7887;SDS011;3989;48.810;9.208;2022-08-04T10:39:45;1.70;;;1.70;;
7887;SDS011;3989;48.810;9.208;2022-08-04T10:42:37;2.10;;;2.00;;
7887;SDS011;3989;48.810;9.208;2022-08-04T10:45:13;1.92;;;1.73;;
7887;SDS011;3989;48.810;9.208;2022-08-04T10:47:49;2.45;;;1.83;;
7887;SDS011;3989;48.810;9.208;2022-08-04T10:50:22;1.58;;;1.48;;
7887;SDS011;3989;48.810;9.208;2022-08-04T10:52:53;1.48;;;1.38;;
7887;SDS011;3989;48.810;9.208;2022-08-04T10:55:27;1.65;;;1.20;;
7887;SDS011;3989;48.810;9.208;2022-08-04T10:57:58;1.58;;;1.48;;
7887;SDS011;3989;48.810;9.208;2022-08-04T11:00:28;1.55;;;1.55;;
7887;SDS011;3989;48.810;9.208;2022-08-04T11:03:00;1.50;;;1.50;;
7887;SDS011;3989;48.810;9.208;2022-08-04T11:05:34;1.35;;;1.35;;
7887;SDS011;3989;48.810;9.208;2022-08-04T11:08:08;1.42;;;1.42;;
7887;SDS011;3989;48.810;9.208;2022-08-04T11:10:39;1.45;;;1.40;;
7887;SDS011;3989;48.810;9.208;2022-08-04T11:13:12;3.20;;;1.83;;
7887;SDS011;3989;48.810;9.208;2022-08-04T11:15:44;2.00;;;1.90;;
7887;SDS011;3989;48.810;9.208;2022-08-04T11:18:19;1.27;;;1.27;;
7887;SDS011;3989;48.810;9.208;2022-08-04T11:20:51;2.83;;;1.70;;
7887;SDS011;3989;48.810;9.208;2022-08-04T11:23:25;1.55;;;1.55;;
7887;SDS011;3989;48.810;9.208;2022-08-04T11:25:59;1.65;;;1.55;;
7887;SDS011;3989;48.810;9.208;2022-08-04T11:28:36;2.20;;;1.42;;
7887;SDS011;3989;48.810;9.208;2022-08-04T11:31:18;1.80;;;1.70;;
7887;SDS011;3989;48.810;9.208;2022-08-04T11:33:51;1.90;;;1.80;;
7887;SDS011;3989;48.810;9.208;2022-08-04T11:36:31;1.42;;;1.42;;
7887;SDS011;3989;48.810;9.208;2022-08-04T11:39:05;2.30;;;1.80;;
7887;SDS011;3989;48.810;9.208;2022-08-04T11:41:41;1.92;;;1.70;;
7887;SDS011;3989;48.810;9.208;2022-08-04T11:44:18;1.60;;;1.60;;
7887;SDS011;3989;48.810;9.208;2022-08-04T11:46:52;1.92;;;1.50;;
7887;SDS011;3989;48.810;9.208;2022-08-04T11:49:28;1.60;;;1.50;;
7887;SDS011;3989;48.810;9.208;2022-08-04T11:52:00;1.70;;;1.60;;
7887;SDS011;3989;48.810;9.208;2022-08-04T11:54:29;1.52;;;1.52;;
7887;SDS011;3989;48.810;9.208;2022-08-04T11:56:58;1.65;;;1.55;;
7887;SDS011;3989;48.810;9.208;2022-08-04T11:59:27;1.52;;;1.50;;
7887;SDS011;3989;48.810;9.208;2022-08-04T12:02:01;3.63;;;1.83;;
7887;SDS011;3989;48.810;9.208;2022-08-04T12:04:44;1.90;;;1.67;;
7887;SDS011;3989;48.810;9.208;2022-08-04T12:07:19;1.63;;;1.52;;
7887;SDS011;3989;48.810;9.208;2022-08-04T12:09:55;1.75;;;1.70;;
7887;SDS011;3989;48.810;9.208;2022-08-04T12:12:36;1.70;;;1.60;;
7887;SDS011;3989;48.810;9.208;2022-08-04T12:15:11;1.38;;;1.30;;
7887;SDS011;3989;48.810;9.208;2022-08-04T12:17:45;1.45;;;1.45;;
7887;SDS011;3989;48.810;9.208;2022-08-04T12:20:22;1.88;;;1.73;;
7887;SDS011;3989;48.810;9.208;2022-08-04T12:22:53;1.30;;;1.30;;
7887;SDS011;3989;48.810;9.208;2022-08-04T12:25:22;1.67;;;1.58;;
7887;SDS011;3989;48.810;9.208;2022-08-04T12:27:56;1.88;;;1.77;;
7887;SDS011;3989;48.810;9.208;2022-08-04T12:30:26;1.70;;;1.70;;
7887;SDS011;3989;48.810;9.208;2022-08-04T12:33:01;2.60;;;1.73;;
7887;SDS011;3989;48.810;9.208;2022-08-04T12:35:34;4.13;;;1.67;;
7887;SDS011;3989;48.810;9.208;2022-08-04T12:38:05;1.67;;;1.58;;
7887;SDS011;3989;48.810;9.208;2022-08-04T12:40:37;2.40;;;1.70;;
7887;SDS011;3989;48.810;9.208;2022-08-04T12:43:08;1.73;;;1.63;;
7887;SDS011;3989;48.810;9.208;2022-08-04T12:45:41;1.67;;;1.60;;
7887;SDS011;3989;48.810;9.208;2022-08-04T12:48:10;1.67;;;1.67;;
7887;SDS011;3989;48.810;9.208;2022-08-04T12:50:39;1.98;;;1.88;;
7887;SDS011;3989;48.810;9.208;2022-08-04T12:53:10;1.70;;;1.60;;
7887;SDS011;3989;48.810;9.208;2022-08-04T12:55:43;1.65;;;1.65;;
7887;SDS011;3989;48.810;9.208;2022-08-04T12:58:14;1.80;;;1.70;;
7887;SDS011;3989;48.810;9.208;2022-08-04T13:00:43;2.08;;;1.92;;
7887;SDS011;3989;48.810;9.208;2022-08-04T13:03:20;1.60;;;1.50;;
7887;SDS011;3989;48.810;9.208;2022-08-04T13:05:53;1.83;;;1.73;;
7887;SDS011;3989;48.810;9.208;2022-08-04T13:08:21;1.58;;;1.58;;
7887;SDS011;3989;48.810;9.208;2022-08-04T13:10:49;2.35;;;1.48;;
7887;SDS011;3989;48.810;9.208;2022-08-04T13:13:20;1.90;;;1.80;;
7887;SDS011;3989;48.810;9.208;2022-08-04T13:15:54;1.83;;;1.73;;
7887;SDS011;3989;48.810;9.208;2022-08-04T13:18:22;1.63;;;1.60;;
7887;SDS011;3989;48.810;9.208;2022-08-04T13:20:50;1.98;;;1.60;;
7887;SDS011;3989;48.810;9.208;2022-08-04T13:23:24;1.77;;;1.77;;
7887;SDS011;3989;48.810;9.208;2022-08-04T13:25:52;1.88;;;1.77;;
7887;SDS011;3989;48.810;9.208;2022-08-04T13:28:22;1.70;;;1.60;;
7887;SDS011;3989;48.810;9.208;2022-08-04T13:30:52;1.63;;;1.60;;
7887;SDS011;3989;48.810;9.208;2022-08-04T13:33:20;1.70;;;1.70;;
7887;SDS011;3989;48.810;9.208;2022-08-04T13:35:48;1.90;;;1.73;;
7887;SDS011;3989;48.810;9.208;2022-08-04T13:38:17;3.88;;;1.77;;
7887;SDS011;3989;48.810;9.208;2022-08-04T13:40:45;2.13;;;2.03;;
7887;SDS011;3989;48.810;9.208;2022-08-04T13:43:21;2.00;;;1.45;;
7887;SDS011;3989;48.810;9.208;2022-08-04T13:45:50;1.98;;;1.88;;
7887;SDS011;3989;48.810;9.208;2022-08-04T13:48:23;1.80;;;1.70;;
7887;SDS011;3989;48.810;9.208;2022-08-04T13:50:51;2.08;;;1.98;;
7887;SDS011;3989;48.810;9.208;2022-08-04T13:53:20;1.80;;;1.70;;
7887;SDS011;3989;48.810;9.208;2022-08-04T13:55:46;2.00;;;1.77;;
7887;SDS011;3989;48.810;9.208;2022-08-04T13:58:18;1.52;;;1.52;;
7887;SDS011;3989;48.810;9.208;2022-08-04T14:00:48;1.85;;;1.75;;
7887;SDS011;3989;48.810;9.208;2022-08-04T14:03:21;2.85;;;1.83;;
7887;SDS011;3989;48.810;9.208;2022-08-04T14:06:04;1.55;;;1.55;;
7887;SDS011;3989;48.810;9.208;2022-08-04T14:08:41;3.13;;;1.73;;
7887;SDS011;3989;48.810;9.208;2022-08-04T14:11:11;1.60;;;1.50;;
7887;SDS011;3989;48.810;9.208;2022-08-04T14:13:39;1.83;;;1.73;;
7887;SDS011;3989;48.810;9.208;2022-08-04T14:16:12;1.83;;;1.73;;
7887;SDS011;3989;48.810;9.208;2022-08-04T14:18:40;1.92;;;1.73;;
7887;SDS011;3989;48.810;9.208;2022-08-04T14:21:07;1.90;;;1.80;;
7887;SDS011;3989;48.810;9.208;2022-08-04T14:23:41;1.60;;;1.60;;
7887;SDS011;3989;48.810;9.208;2022-08-04T14:26:15;2.10;;;2.00;;
7887;SDS011;3989;48.810;9.208;2022-08-04T14:28:46;1.50;;;1.50;;
7887;SDS011;3989;48.810;9.208;2022-08-04T14:31:14;2.15;;;2.05;;
7887;SDS011;3989;48.810;9.208;2022-08-04T14:33:43;2.15;;;2.05;;
7887;SDS011;3989;48.810;9.208;2022-08-04T14:36:11;1.80;;;1.80;;
7887;SDS011;3989;48.810;9.208;2022-08-04T14:38:46;1.90;;;1.80;;
7887;SDS011;3989;48.810;9.208;2022-08-04T14:41:19;1.65;;;1.65;;
7887;SDS011;3989;48.810;9.208;2022-08-04T14:43:48;1.77;;;1.67;;
7887;SDS011;3989;48.810;9.208;2022-08-04T14:46:16;1.90;;;1.80;;
7887;SDS011;3989;48.810;9.208;2022-08-04T14:49:00;1.98;;;1.88;;
7887;SDS011;3989;48.810;9.208;2022-08-04T14:51:37;2.88;;;1.80;;
7887;SDS011;3989;48.810;9.208;2022-08-04T14:54:07;1.80;;;1.70;;
7887;SDS011;3989;48.810;9.208;2022-08-04T14:56:35;2.08;;;1.98;;
7887;SDS011;3989;48.810;9.208;2022-08-04T14:59:04;2.13;;;2.03;;
7887;SDS011;3989;48.810;9.208;2022-08-04T15:01:32;2.00;;;1.90;;
7887;SDS011;3989;48.810;9.208;2022-08-04T15:04:00;2.13;;;2.03;;
7887;SDS011;3989;48.810;9.208;2022-08-04T15:06:29;3.00;;;2.08;;
7887;SDS011;3989;48.810;9.208;2022-08-04T15:08:58;2.55;;;1.77;;
7887;SDS011;3989;48.810;9.208;2022-08-04T15:11:27;1.70;;;1.60;;
7887;SDS011;3989;48.810;9.208;2022-08-04T15:13:54;1.80;;;1.70;;
7887;SDS011;3989;48.810;9.208;2022-08-04T15:16:22;1.90;;;1.80;;
7887;SDS011;3989;48.810;9.208;2022-08-04T15:18:50;1.90;;;1.80;;
7887;SDS011;3989;48.810;9.208;2022-08-04T15:21:17;2.35;;;2.15;;
7887;SDS011;3989;48.810;9.208;2022-08-04T15:23:46;2.47;;;1.70;;
7887;SDS011;3989;48.810;9.208;2022-08-04T15:26:14;2.00;;;1.90;;
7887;SDS011;3989;48.810;9.208;2022-08-04T15:28:45;1.95;;;1.85;;
7887;SDS011;3989;48.810;9.208;2022-08-04T15:31:15;2.20;;;2.10;;
7887;SDS011;3989;48.810;9.208;2022-08-04T15:33:44;1.75;;;1.70;;
7887;SDS011;3989;48.810;9.208;2022-08-04T15:36:14;1.70;;;1.60;;
7887;SDS011;3989;48.810;9.208;2022-08-04T15:38:48;1.95;;;1.83;;
7887;SDS011;3989;48.810;9.208;2022-08-04T15:41:22;1.92;;;1.83;;
7887;SDS011;3989;48.810;9.208;2022-08-04T15:44:05;1.85;;;1.75;;
7887;SDS011;3989;48.810;9.208;2022-08-04T15:49:36;2.05;;;1.70;;
7887;SDS011;3989;48.810;9.208;2022-08-04T15:52:05;2.55;;;2.38;;
7887;SDS011;3989;48.810;9.208;2022-08-04T15:54:33;2.20;;;2.00;;
7887;SDS011;3989;48.810;9.208;2022-08-04T15:57:01;1.88;;;1.80;;
7887;SDS011;3989;48.810;9.208;2022-08-04T15:59:55;2.03;;;1.95;;
7887;SDS011;3989;48.810;9.208;2022-08-04T16:05:28;1.88;;;1.88;;
7887;SDS011;3989;48.810;9.208;2022-08-04T16:08:07;2.38;;;1.88;;
7887;SDS011;3989;48.810;9.208;2022-08-04T16:14:07;2.47;;;2.00;;
7887;SDS011;3989;48.810;9.208;2022-08-04T16:16:45;2.28;;;2.17;;
7887;SDS011;3989;48.810;9.208;2022-08-04T16:19:16;2.13;;;2.03;;
7887;SDS011;3989;48.810;9.208;2022-08-04T16:21:51;2.20;;;2.15;;
7887;SDS011;3989;48.810;9.208;2022-08-04T16:24:19;2.10;;;2.00;;
7887;SDS011;3989;48.810;9.208;2022-08-04T16:26:48;2.15;;;2.05;;
7887;SDS011;3989;48.810;9.208;2022-08-04T16:29:26;2.25;;;1.92;;
7887;SDS011;3989;48.810;9.208;2022-08-04T16:32:15;3.58;;;2.20;;
7887;SDS011;3989;48.810;9.208;2022-08-04T16:34:53;2.33;;;2.05;;
7887;SDS011;3989;48.810;9.208;2022-08-04T16:37:26;2.70;;;1.90;;
7887;SDS011;3989;48.810;9.208;2022-08-04T16:42:52;2.38;;;1.90;;
7887;SDS011;3989;48.810;9.208;2022-08-04T16:45:19;2.00;;;2.00;;
7887;SDS011;3989;48.810;9.208;2022-08-04T16:48:03;2.05;;;1.95;;
7887;SDS011;3989;48.810;9.208;2022-08-04T16:50:33;2.10;;;2.00;;
7887;SDS011;3989;48.810;9.208;2022-08-04T16:53:11;2.03;;;1.92;;
7887;SDS011;3989;48.810;9.208;2022-08-04T16:55:38;2.28;;;2.17;;